Ontario, New York
Current Conditions -  °F | °C
As of 3:54 PM on Thursday 23 Oct 2014 (Local Time) from KROC Reporting Station
Broken Clouds Broken Clouds  
Wind Chill: 59°   Ceiling: 6500
Heat Index: 59°   Visibility: 10mi
Dew Point: 40°   Wind: 15mph
Humidity: 49%   Direction: 330°NNW
Pressure: 29.99"   Gusts: 25mph
Location:  43.22°N, 77.28°W
Report Text: KROC 231954Z 33013G22KT 10SM FEW040 BKN065 15/04 A2999 RMK AO2 SLP160 T01500044
Loading
Personal Weather Stations






























Interactive Weather Map
Tropical Storm Tracking
New forecast layout! Learn more

10-Day Weather Forecast

Advertisements
Track Severe Weather on mobile